EW9560 Weather Reports


Display with metric or nautical units.
time (UTC)temp
F
wind
direction
speed
MPH
gust
MPH
rain 1hr
in
rain 24hr
in
rain mn
in
humidity
%
barometer
mb
20200401120027 33 167 1.0 0.0 0.00 0.41 0.01 98 1.0
20200401114551 32 192 2.0 0.0 0.00 0.42 0.01 97 1.0
20200401110030 32 161 2.0 0.0 0.00 0.42 0.01 97 1.0
20200401100024 33 189 2.0 0.0 0.01 0.43 0.01 97 1.0
20200401094526 33 192 2.0 0.0 0.01 0.45 0.01 96 1.0
20200401090031 35 250 2.0 0.0 0.00 0.46 0.00 95 1.0
20200401081608 35 221 3.0 0.0 0.00 0.48 0.00 96 1.0
20200401073113 35 191 2.0 0.0 0.00 0.50 0.00 96 1.0
20200401071525 35 236 1.0 0.0 0.00 0.50 0.00 95 1.0
20200401061532 38 197 2.0 0.0 0.00 0.56 0.53 93 1.0
20200401060052 38 308 6.0 0.0 0.04 0.59 0.53 94 1.0
20200401051541 38 309 5.0 0.0 0.09 0.61 0.53 94 1.0
20200401050102 38 273 4.0 0.0 0.05 0.56 0.49 94 1.0
20200401044617 37 216 2.0 0.0 0.01 0.54 0.45 93 1.0
20200401043031 38 157 1.0 0.0 0.00 0.54 0.44 92 1.0
20200401041537 39 287 2.0 0.0 0.00 0.56 0.44 90 1.0
20200401040052 39 287 2.0 0.0 0.00 0.56 0.44 90 1.0
20200401024530 39 259 3.0 0.0 0.01 0.65 0.44 90 1.0
20200401023118 39 292 4.0 0.0 0.01 0.67 0.43 90 1.0
20200401021529 39 279 5.0 0.0 0.01 0.69 0.43 90 1.0
20200401014526 39 309 3.0 0.0 0.05 0.71 0.43 88 1.0
20200401013053 43 313 5.0 0.0 0.04 0.70 0.42 80 1.0
20200401010035 44 319 4.0 0.0 0.00 0.66 0.38 78 1.0
20200401004533 44 244 5.0 0.0 0.00 0.66 0.38 76 1.0
20200401001533 44 247 3.0 0.0 0.00 0.66 0.38 77 1.0
20200401000114 43 244 5.0 0.0 0.00 0.66 0.38 78 1.0
20200331234536 43 253 5.0 0.0 0.00 0.66 0.38 77 1.0
20200331233031 44 229 5.0 0.0 0.01 0.66 0.38 77 1.0
20200331231536 43 271 4.0 0.0 0.01 0.67 0.38 79 1.0
20200331230028 43 264 7.0 0.0 0.01 0.67 0.38 81 1.0
20200331223105 46 299 9.0 0.0 0.00 0.67 0.37 70 1.0
20200331221615 49 302 6.0 0.0 0.00 0.67 0.37 67 1.0
20200331214544 48 297 6.0 0.0 0.00 0.70 0.37 68 1.0
20200331213105 46 226 6.0 0.0 0.00 0.71 0.37 75 1.0
20200331203043 43 252 5.0 0.0 0.00 0.71 0.37 83 1.0
20200331201528 41 287 8.0 0.0 0.00 0.71 0.37 85 1.0
20200331200025 45 314 9.0 0.0 0.00 0.71 0.37 74 1.0
20200331193104 45 300 6.0 0.0 0.00 0.71 0.37 76 1.0
20200331191532 44 307 4.0 0.0 0.00 0.71 0.37 76 1.0
20200331190044 44 298 6.0 0.0 0.00 0.71 0.37 76 1.0
20200331184543 44 237 4.0 0.0 0.00 0.71 0.37 83 1.0
20200331181615 41 196 6.0 0.0 0.00 0.71 0.37 92 1.0
20200331174529 39 221 4.0 0.0 0.00 0.71 0.37 94 1.0
20200331171539 39 135 2.0 0.0 0.01 0.71 0.37 95 1.0
20200331170055 38 283 0.0 0.0 0.03 0.71 0.37 95 1.0
20200331163047 37 269 4.0 0.0 0.10 0.71 0.37 96 1.0
20200331161604 36 269 4.0 0.0 0.15 0.70 0.36 97 1.0
20200331160027 37 299 3.0 0.0 0.13 0.68 0.34 98 1.0
20200331154527 38 7 1.0 0.0 0.06 0.61 0.27 98 1.0
20200331151536 38 70 1.0 0.0 0.04 0.56 0.21 98 1.0
20200331150051 38 219 0.0 0.0 0.05 0.56 0.21 99 1.0
20200331143054 38 215 2.0 0.0 0.04 0.56 0.20 99 1.0
20200331141552 38 202 2.0 0.0 0.01 0.53 0.17 99 1.0
20200331140111 38 180 2.0 0.0 0.01 0.53 0.16 99 1.0
20200331134530 37 153 0.0 0.0 0.01 0.54 0.16 99 1.0
20200331133054 37 112 0.0 0.0 0.02 0.54 0.16 99 1.0
20200331131549 37 112 0.0 0.0 0.03 0.55 0.16 99 1.0
20200331130033 37 112 0.0 0.0 0.02 0.54 0.15 98 1.0
20200331124552 37 113 0.0 0.0 0.03 0.55 0.15 98 1.0
20200331123032 37 173 2.0 0.0 0.02 0.54 0.14 98 1.0
20200331121526 37 298 1.0 0.0 0.01 0.55 0.13 98 1.0